Andrey Gusyev

Olheiro-Chefe - Rubin
6 Ago 2028
Domingo
Processo

Personalidade

Adaptabilidade (19) Ambição (2) Controvérsia (4) Lealdade (13) Pressão (10) Profissionalismo (7) Espírito Esportivo (3) Temperamento (19)

Perfil

Estilo de Treinamento Democrático
Licença Nacional A
Determinação 11
Gestão de Pessoas 10
Motivação 12
Disciplina 6
Satisfação no Trabalho
100%
Fadiga
0%
Função Olheiro-Chefe
Salário 90.6K p/s
Contrato 14.03.2030

Desempenho

Comportamento Bom
Eficácia do Treinamento
55%
Desenvolvimento do Jogador
30%
Prevenção de Lesões
30%
Implementação Tática
50%

Eventos Recentes

Participou de uma reunião de recrutamento agora
Recomendou um alvo de transferência agora
Participou de uma reunião de recrutamento agora
Recomendou um alvo de transferência agora
Votou contra um alvo de transferência agora
Participou de uma reunião de recrutamento agora
Recomendou um alvo de transferência agora
Recomendou um alvo de transferência agora

Monitorando agora

177
Jogador Clube Status Habilidade Confiança Observado Última observação Último voto
Artur Cherny Shinnik Perdido 109 / 95 69% 1 24.07.2028 -
Amine Boukamir Charleroi Ativo 110 / 119 40% 4 18.07.2028 -
Nicolò Moranduzzo Renate Ativo 98 / 96 40% 4 18.07.2028 -
Musa Danjuma Umraniyespor Ativo 89 / 97 40% 2 10.07.2028 -
Artem Nosachev Spartak Moscow Ativo 89 / 94 40% 1 10.07.2028 -
Andrey Ivlev Nizhniy Novgorod Ativo 120 / 130 40% 3 29.06.2028 -
Christos Mouzakitis Hull City Ativo 143 / 138 40% 7 29.06.2028 -
Itumeleng Jali Spezia Ativo 113 / 115 40% 3 29.06.2028 -
Alexandr Kleschenko Rotor Ativo 102 / 93 69% 1 14.06.2028 Aprovar
Riquelme Thompson-Jones Accrington Stanley Ativo 106 / 118 40% 3 13.06.2028 -
Bernardo Lima Porto Ativo 115 / 128 40% 6 13.06.2028 -
Martim Cunha Porto Ativo 103 / 109 40% 3 10.06.2028 -
Josh Nichols Oldham Athletic Ativo 125 / 130 40% 5 10.06.2028 -
Daniel Banjaqui Benfica Ativo 126 / 124 40% 6 08.06.2028 -
Denis Grigorjev Arsenal Tula Ativo 77 / 77 40% 2 07.06.2028 -
Abubakar Adams Aduana Stars Ativo 93 / 77 40% 3 05.06.2028 -
Kelian Le Pironnec Mirandés Ativo 95 / 103 40% 1 05.06.2028 -
Owen Foye Swindon Town Ativo 89 / 85 40% 1 05.06.2028 -
Jorthy Mokio ADO Den Haag Ativo 134 / 131 40% 2 06.05.2028 -
Olivier Leroux Mouscron Ativo 101 / 119 40% 8 05.05.2028 -
Adnan Nainggolan KV Oostende Ativo 109 / 107 40% 6 05.05.2028 -
Federico Matarán Giana Erminio Ativo 99 / 123 40% 3 05.05.2028 -
Ayden Heaven Portsmouth Ativo 147 / 154 40% 2 04.05.2028 -
Jan Bürger Northampton Town Ativo 117 / 133 40% 5 03.05.2028 -
Miguel Figueiredo Benfica Ativo 122 / 124 40% 4 01.05.2028 -
Tyler Fletcher Rotherham United Ativo 116 / 122 40% 1 29.04.2028 -
Celías Ingenthron Platense Ativo 122 / 116 40% 1 29.04.2028 -
Simone Suppa Virtus Verona Ativo 89 / 94 40% 1 27.04.2028 -
Augusto Bando Ascoli Ativo 106 / 117 40% 1 23.04.2028 -
Honest Ahanor Atalanta Ativo 131 / 146 40% 4 22.04.2028 -
Kiani Inge Groningen Ativo 113 / 111 40% 2 20.04.2028 -
Eko Solomon Leixões Ativo 83 / 98 40% 1 20.04.2028 -
Maxim Radchenko Rostov Ativo 88 / 94 40% 5 19.04.2028 -
Olivier Mambwa Young Boys Ativo 107 / 122 40% 3 17.04.2028 -
Andrea Cogoni Cosenza Ativo 105 / 121 40% 1 17.04.2028 -
Trey Nyoni Rotherham United Ativo 140 / 150 40% 4 09.04.2028 -
Giovanni Leoni Lincoln City Ativo 136 / 152 40% 4 30.03.2028 -
Victor Hernandez Santa Fe Ativo 127 / 119 40% 7 27.03.2028 -
Andrea Bertoncini Triestina Ativo 100 / 103 40% 1 26.03.2028 -
Josh Acheampong Everton Ativo 141 / 141 40% 3 22.03.2028 -
Bence Szakos Aris Ativo 97 / 85 40% 1 20.03.2028 -
Nicolas Sport Recife Ativo 104 / 122 40% 1 15.03.2028 -
Tobiáš Pališčák Zlin Ativo 92 / 97 40% 1 10.03.2028 -
Tobías Ramírez River Plate Ativo 120 / 124 40% 1 09.03.2028 -
Kieran Morgan Queens Park Rangers Ativo 121 / 135 40% 2 08.03.2028 -
Jamie Wähling Hibernians Ativo 82 / 84 40% 1 14.02.2028 -
Irad Mshindi Liepaja Ativo 83 / 98 40% 1 14.02.2028 -
Martin Cedidla Club Brugge Ativo 131 / 132 66% 1 25.01.2028 Aprovar
Nicolás Fernández Mercau Club America Ativo 134 / 134 67% 1 25.01.2028 Aprovar
Matías Canedo Rampla Juniors Ativo 84 / 84 40% 1 17.01.2028 -
Makar Vysochenko Spartak Moscow Ativo 96 / 101 67% 7 16.01.2028 Observar
Stuart Hawkins Seattle Sounders Ativo 114 / 127 40% 1 14.01.2028 -
Jonny Shore New York City Ativo 92 / 119 40% 2 13.01.2028 -
Juan Camilo Córdoba Deportivo Pereira Ativo 88 / 103 40% 4 12.01.2028 -
Colin Guske Orlando City Ativo 97 / 87 40% 1 11.01.2028 -
Ignacio Fernández Boston River Ativo 83 / 109 40% 2 09.01.2028 -
Matias Siltanen Malmo FF Ativo 132 / 145 40% 1 07.01.2028 -
Rasmus Nehrman Gefle Ativo 82 / 71 40% 2 04.01.2028 -
Azizbek Erimbetov Neftchi Ativo 74 / 92 40% 1 04.01.2028 -
Diego Vargas Universidad de Concepcion Ativo 91 / 101 40% 1 31.12.2027 -
Onyeuche Ujunwa Ikorodu City Ativo 86 / 83 40% 5 29.12.2027 -
Hosea Michael Remo Stars Ativo 101 / 102 40% 4 26.12.2027 -
Joel Ezra Enyimba Ativo 93 / 101 40% 4 22.12.2027 -
Gonçalo Oliveira Benfica Ativo 111 / 118 40% 2 20.12.2027 -
Evgeniy Novykh Vitebsk Ativo 75 / 90 40% 2 17.12.2027 -
Kirill Volkov Volgar Ativo 91 / 100 40% 1 16.12.2027 -
Frederik Damkjer Viborg Ativo 92 / 92 40% 1 15.12.2027 -
Matvey Bardachev Zenit Ativo 99 / 105 40% 1 12.12.2027 -
Gideon Manaseh Ikorodu City Ativo 80 / 99 40% 1 11.12.2027 -
Abena Ottou Felix Christanval Minsk Ativo 84 / 82 40% 1 09.12.2027 -
Jon Esenga IF Elfsborg Ativo 85 / 88 40% 2 08.12.2027 -
Óscar Hinojosa Metropolitanos Ativo 91 / 76 40% 1 05.12.2027 -
Luciano Posadas Central Córdoba SdE Ativo 97 / 104 40% 1 28.11.2027 -
Oscar Steinke Brånby Hammarby Ativo 97 / 114 40% 1 25.11.2027 -
Lucas Camejo River Plate Ativo 96 / 97 40% 1 24.11.2027 -
Hugo Rojas Instituto Ativo 99 / 102 40% 1 14.11.2027 -
Timofey Marinkin Dinamo Moscow Ativo 91 / 87 67% 1 13.11.2027 Observar
Omar Minatulaev Orenburg Ativo 81 / 73 67% 2 11.11.2027 Rejeitar
Yiandro Raap Ilves Ativo 97 / 95 40% 1 11.11.2027 -
Brayan Gil Baltika Ativo 124 / 109 40% 5 30.06.2027 -
Pedro de la Vega Columbus Crew Ativo 133 / 134 66% 1 14.06.2027 Aprovar
Heinz Mörschel Espanyol Ativo 125 / 113 40% 1 10.06.2027 -
Yegor Vedernikov Irkutsk Ativo 71 / 84 40% 1 10.06.2027 -
George Hoddle Cambridge United Ativo 83 / 94 40% 2 08.06.2027 -
Ozziel Herrera Barcelona Ativo 127 / 141 40% 1 08.06.2027 -
Nikolay Komlichenko Lokomotiv Moscow Ativo 132 / 115 40% 1 08.06.2027 -
Leonardo Candellone Juve Stabia Ativo 120 / 124 40% 1 05.06.2027 -
Eduardo Lozano Botafogo Ativo 152 / 152 40% 4 30.05.2027 -
Mathys Tel Tottenham Ativo 135 / 147 40% 2 30.05.2027 -
Manfred Ugalde Spartak Moscow Ativo 138 / 138 40% 6 28.05.2027 -
Ezra Mayers West Ham United Ativo 113 / 124 40% 1 28.05.2027 -
Rhys Walters Port Vale Ativo 98 / 113 40% 1 28.05.2027 -
Soufiane Benjdida FC Nantes Ativo 125 / 127 40% 2 27.05.2027 -
Franculino Brighton Ativo 132 / 150 40% 4 24.05.2027 -
Ilyas Ansah Hull City Ativo 132 / 127 40% 2 23.05.2027 -
Luciano Gondou Chelsea Ativo 130 / 120 40% 2 20.05.2027 -
Matteo Cichella Frosinone Ativo 116 / 111 40% 2 16.05.2027 -
Bence Dárdai VfL Wolfsburg Ativo 136 / 145 40% 1 14.05.2027 -
Leandro Martins Benfica Ativo 96 / 104 40% 1 11.05.2027 -
Konta Ismaily Ativo 75 / 118 40% 1 09.05.2027 -
Esequiel Barco Spartak Moscow Ativo 142 / 127 40% 1 08.05.2027 -
Younes Ebnoutalib Eintracht Frankfurt Ativo 130 / 132 40% 1 05.05.2027 -
Maksim Samorodov Akhmat Grozny Ativo 119 / 111 40% 1 04.05.2027 -
Egas Cacintura Akhmat Grozny Ativo 120 / 127 40% 1 02.05.2027 -
Marquinhos Spartak Moscow Ativo 130 / 139 40% 5 01.05.2027 -
Joe Johnson Luton Town Ativo 96 / 115 40% 1 30.04.2027 -
Bade Aluko Leicester City Ativo 110 / 126 40% 1 25.04.2027 -
Mirlind Daku Spartak Moscow Ativo 123 / 130 40% 2 22.04.2027 -
Arthur Gomes Dinamo Moscow Ativo 130 / 113 40% 2 08.04.2027 -
David Ozoh Derby County Ativo 120 / 125 40% 1 06.04.2027 -
Mihailo Ivanović Aston Villa Ativo 127 / 125 40% 2 05.04.2027 -
Ivan Sergeev Dinamo Moscow Ativo 133 / 113 40% 2 27.03.2027 -
Norbert Barczak Korona Ativo 79 / 96 40% 1 19.03.2027 -
Alerrandro CSKA Moscow Ativo 125 / 127 40% 1 09.03.2027 -
Tamerlan Musaev CSKA Moscow Ativo 109 / 119 40% 2 08.03.2027 -
Samuele di Benedetto Twente Ativo 110 / 119 40% 1 07.03.2027 -
Robert Mejía Orenburg Ativo 107 / 106 40% 1 08.02.2027 -
Ilja Vakhania Krasnodar Ativo 131 / 106 40% 1 01.02.2027 -
Nail Umyarov Spartak Moscow Ativo 135 / 128 40% 1 30.01.2027 -
Sampson Dweh Mallorca Ativo 133 / 134 66% 1 25.01.2027 Aprovar
Dmitry Tikhiy Volga Ativo 103 / 98 58% 1 25.01.2027 -
Anton Mitryushkin Lokomotiv Moscow Ativo 120 / 133 40% 3 23.01.2027 -
Kirill Glebov CSKA Moscow Ativo 121 / 135 40% 2 20.01.2027 -
Aldo Pérez Guarani Ativo 114 / 106 40% 2 15.01.2027 -
Alexandr Selikhov Ural Ativo 118 / 109 40% 5 14.01.2027 -
Ilja Pomazun Spartak Moscow Ativo 125 / 117 40% 1 13.01.2027 -
Alexandr Koryakin Krasnodar Ativo 104 / 100 40% 2 12.01.2027 -
Luis Chávez Dinamo Moscow Ativo 122 / 127 40% 2 12.01.2027 -
Maxim Borisko CSKA Moscow Ativo 118 / 134 40% 2 08.01.2027 -
Stanislav Agkatsev Brentford Ativo 143 / 127 40% 6 01.01.2027 Observar
Joaquín Bigo Tristán Suárez Ativo 108 / 109 40% 2 01.01.2027 -
Lucas Bergström Union Berlin Ativo 122 / 130 40% 4 28.12.2026 -
Olakunle Olusegun Rostov Ativo 117 / 133 40% 1 24.12.2026 -
Rustam Yatimov Rostov Ativo 129 / 132 40% 3 20.12.2026 -
Otávio Spartak Moscow Ativo 138 / 143 40% 1 16.12.2026 -
Igor Leschuk Dinamo Moscow Ativo 111 / 121 40% 1 14.12.2026 -
Bogdan Ovsyannikov Orenburg Ativo 99 / 100 40% 6 12.12.2026 -
Pedro Rocha Juventude Ativo 112 / 121 40% 1 08.12.2026 -
Luiz Felipe Lokomotiv Moscow Ativo 100 / 121 40% 2 07.12.2026 -
Harvey Vale Queens Park Rangers Ativo 121 / 119 40% 1 03.12.2026 -
Samuel Brolin Kalmar FF Ativo 117 / 109 40% 2 30.11.2026 -
Lechi Sadulaev Akhmat Grozny Ativo 128 / 107 40% 2 29.11.2026 -
Batxi Krasnodar Ativo 132 / 115 40% 1 29.11.2026 -
Facundo Altamirano San Lorenzo Ativo 126 / 124 40% 1 25.11.2026 -
Fernando Costanza Krylya Sovetov Ativo 122 / 136 40% 1 24.11.2026 -
Francisco Meixedo Feirense Ativo 118 / 101 40% 3 18.11.2026 -
Rubén Blanco Yokohama F. Marinos Ativo 143 / 150 40% 2 13.11.2026 -
Sébastien Cibois Portimonense Ativo 111 / 118 40% 1 13.11.2026 -
Lucas Vera Lokomotiv Moscow Ativo 114 / 121 40% 1 09.11.2026 -
Matthias Seidl Rapid Wien Ativo 127 / 130 40% 1 08.11.2026 -
Tyrhys Dolan Espanyol Ativo 142 / 134 40% 1 03.11.2026 -
Rubens Dinamo Moscow Ativo 125 / 144 40% 2 02.11.2026 -
Iker Pozo Rodina Ativo 114 / 119 40% 1 02.11.2026 -
Nikita Medvedev Nizhniy Novgorod Ativo 101 / 118 40% 3 31.10.2026 -
Denis Adamov Zenit Ativo 127 / 130 40% 2 31.10.2026 -
Alex Bono DC United Ativo 127 / 113 40% 1 30.10.2026 -
Ivan Lomaev Ufa Ativo 98 / 96 40% 3 27.10.2026 -
Fedor Lapoukhov Osasuna Ativo 113 / 129 40% 1 26.10.2026 -
Alexandr Chernikov Krasnodar Ativo 123 / 115 40% 1 24.10.2026 -
Abduvohid Ne'matov Nasaf Ativo 111 / 121 40% 2 21.10.2026 -
Filip Marschall Stevenage Ativo 112 / 100 40% 1 07.10.2026 -
Husain Norchayev Navbahor Ativo 106 / 112 40% 1 07.10.2026 -
Vladimir Nazarov Pakhtakor Ativo 97 / 131 40% 1 05.10.2026 -
Nikita Krivtsov Krasnodar Ativo 138 / 123 40% 3 01.10.2026 -
Lucas Souto Defensa y Justicia Ativo 116 / 132 40% 1 27.09.2026 -
Dmitry Vasiljev Orenburg Ativo 105 / 106 40% 1 27.09.2026 -
Diyor Xolmatov Navbahor Ativo 120 / 106 40% 1 25.09.2026 -
Manu Morlanes Mallorca Ativo 139 / 128 40% 1 24.09.2026 -
Jay Matete Milton Keynes Dons Ativo 113 / 122 40% 1 23.09.2026 -
Mihajlo Banjac Krylya Sovetov Ativo 110 / 122 40% 1 23.09.2026 -
Sergey Pinyaev Lokomotiv Moscow Ativo 130 / 126 40% 1 20.09.2026 -
Lawrence Ennali Houston Dynamo Ativo 111 / 125 40% 1 15.09.2026 -
Mikhail Ignatov Sochi Ativo 107 / 127 40% 2 14.09.2026 -
Million Manhoef Stoke City Ativo 115 / 126 40% 1 14.09.2026 -
Temirlan Anarbekov Kairat Ativo 97 / 97 40% 1 24.08.2026 -
Marin Žgomba Vitebsk Ativo 90 / 76 40% 1 10.08.2026 -
Gabriel Martinelli Arsenal Ativo 163 / 164 40% 1 01.08.2026 -